Time;durP1;ratioP1;P1;durP2;ratioP2;P2;SDS_P1;SDS_P2;PMS_P1;PMS_P2;Temp;Humidity;BMP_temperature;BMP_pressure;BME280_temperature;BME280_humidity;BME280_pressure;Samples;Min_cycle;Max_cycle;Signal;HPM_P1;HPM_P2
2023/12/08 00:01:22;;;;;;;17.73;7.63;;;;;;;1.21;100.00;100069.75;4978883;28;20306;-76
2023/12/08 00:03:48;;;;;;;18.03;8.20;;;;;;;1.23;100.00;100080.25;4981211;28;20197;-76
2023/12/08 00:06:14;;;;;;;19.87;7.77;;;;;;;1.21;100.00;100053.22;4995770;28;20233;-75
2023/12/08 00:08:41;;;;;;;17.03;7.13;;;;;;;1.35;100.00;100059.03;4969559;28;20300;-76
2023/12/08 00:11:09;;;;;;;14.93;7.30;;;;;;;1.35;100.00;100057.31;4965608;28;20236;-76
2023/12/08 00:13:35;;;;;;;15.10;6.93;;;;;;;1.38;100.00;100030.47;4961415;28;20208;-76
2023/12/08 00:16:03;;;;;;;21.90;8.20;;;;;;;1.38;100.00;100014.81;4965820;28;20220;-76
2023/12/08 00:18:29;;;;;;;19.17;7.30;;;;;;;1.44;100.00;100015.06;4957971;28;20209;-76
2023/12/08 00:20:56;;;;;;;19.93;7.63;;;;;;;1.46;100.00;100016.03;4968493;28;20702;-76
2023/12/08 00:23:23;;;;;;;14.97;6.93;;;;;;;1.40;100.00;99998.41;4981151;28;20206;-76
2023/12/08 00:25:49;;;;;;;17.07;7.20;;;;;;;1.36;100.00;100006.91;4978897;28;20233;-75
2023/12/08 00:28:16;;;;;;;16.63;7.20;;;;;;;1.36;100.00;100013.84;4965006;28;20288;-75
2023/12/08 00:30:42;;;;;;;16.17;7.87;;;;;;;1.30;100.00;99992.72;4968931;28;20312;-76
2023/12/08 00:33:09;;;;;;;19.87;8.10;;;;;;;1.33;100.00;100001.56;4980443;28;20202;-76
2023/12/08 00:35:35;;;;;;;15.87;7.90;;;;;;;1.25;100.00;99972.56;4963421;28;20203;-76
2023/12/08 00:38:02;;;;;;;17.20;7.87;;;;;;;1.29;100.00;100006.59;4967637;28;20197;-76
2023/12/08 00:40:29;;;;;;;15.57;6.70;;;;;;;1.28;100.00;99999.59;4977588;28;20221;-75
2023/12/08 00:42:55;;;;;;;18.53;7.60;;;;;;;1.33;100.00;99978.09;4959118;28;20202;-76
2023/12/08 00:45:22;;;;;;;15.23;7.10;;;;;;;1.34;100.00;99955.50;4970069;28;20213;-76
2023/12/08 00:47:48;;;;;;;17.13;7.60;;;;;;;1.36;100.00;99970.41;4959680;28;20301;-76
2023/12/08 00:50:16;;;;;;;18.67;7.53;;;;;;;1.34;100.00;99976.38;4974672;28;20225;-76
2023/12/08 00:52:42;;;;;;;15.03;7.33;;;;;;;1.31;100.00;99979.75;4982290;28;20768;-75
2023/12/08 00:55:09;;;;;;;19.70;7.87;;;;;;;1.29;100.00;100002.28;4974682;28;20214;-76
2023/12/08 00:57:35;;;;;;;18.27;8.07;;;;;;;1.30;100.00;99997.94;4983562;28;20202;-76
2023/12/08 01:00:04;;;;;;;18.10;7.07;;;;;;;1.40;100.00;99994.91;4964909;28;20272;-76
2023/12/08 01:02:30;;;;;;;16.73;7.33;;;;;;;1.38;100.00;99994.84;4967000;28;20281;-75
2023/12/08 01:04:57;;;;;;;17.83;7.40;;;;;;;1.33;100.00;100000.69;4965072;28;20202;-76
2023/12/08 01:07:24;;;;;;;15.90;7.63;;;;;;;1.33;100.00;100024.16;4963825;28;20201;-76
2023/12/08 01:09:53;;;;;;;17.47;7.23;;;;;;;1.31;100.00;100018.88;4966919;28;20240;-76
2023/12/08 01:12:20;;;;;;;18.80;8.33;;;;;;;1.34;100.00;100016.41;4978926;28;20221;-76
2023/12/08 01:14:47;;;;;;;23.50;8.20;;;;;;;1.35;100.00;99988.59;4968234;28;20208;-76
2023/12/08 01:17:13;;;;;;;15.70;7.30;;;;;;;1.43;100.00;99974.16;4964504;28;20194;-76
2023/12/08 01:19:40;;;;;;;16.80;7.20;;;;;;;1.35;100.00;99975.56;4972132;28;20273;-76
2023/12/08 01:22:06;;;;;;;21.40;7.83;;;;;;;1.38;100.00;99967.84;4961432;28;20549;-76
2023/12/08 01:24:33;;;;;;;17.43;7.70;;;;;;;1.33;100.00;99969.38;4963522;28;20198;-76
2023/12/08 01:26:59;;;;;;;13.17;6.57;;;;;;;1.34;100.00;99979.00;4968499;28;20200;-76
2023/12/08 01:29:26;;;;;;;19.00;7.87;;;;;;;1.29;100.00;99984.00;4978621;28;20225;-76
2023/12/08 01:31:52;;;;;;;18.17;8.60;;;;;;;1.29;100.00;99993.56;4978813;28;20222;-76
2023/12/08 01:34:19;;;;;;;17.33;8.10;;;;;;;1.35;100.00;99983.38;4965859;28;20216;-76
2023/12/08 01:36:45;;;;;;;17.10;7.97;;;;;;;1.35;100.00;99960.78;4962417;28;20659;-76
2023/12/08 01:39:12;;;;;;;12.40;7.30;;;;;;;1.37;100.00;99973.91;4964991;28;20200;-76
2023/12/08 01:41:39;;;;;;;18.27;7.23;;;;;;;1.30;100.00;99953.59;4964917;28;20260;-76
2023/12/08 01:44:06;;;;;;;15.73;7.10;;;;;;;1.39;100.00;99951.38;4978054;28;20630;-76
2023/12/08 01:46:34;;;;;;;16.20;7.50;;;;;;;1.37;100.00;99958.25;4964114;28;20209;-76
2023/12/08 01:49:01;;;;;;;18.20;7.50;;;;;;;1.31;100.00;99944.94;4964700;28;20230;-76
2023/12/08 01:51:28;;;;;;;16.47;7.47;;;;;;;1.39;100.00;99943.56;4959712;28;20260;-76
2023/12/08 01:53:55;;;;;;;19.37;8.57;;;;;;;1.34;100.00;99943.34;4965101;28;20222;-76
2023/12/08 01:56:22;;;;;;;16.53;7.17;;;;;;;1.40;100.00;99930.56;4962598;28;20201;-76
2023/12/08 01:58:48;;;;;;;17.80;7.17;;;;;;;1.40;100.00;99934.91;4977685;28;20241;-76
2023/12/08 02:01:15;;;;;;;14.17;7.27;;;;;;;1.39;100.00;99939.22;4963107;28;20226;-76
2023/12/08 02:03:44;;;;;;;17.03;7.70;;;;;;;1.36;100.00;99936.50;4964166;28;20205;-76
2023/12/08 02:06:11;;;;;;;18.70;7.77;;;;;;;1.37;100.00;99939.97;4963862;28;20614;-76
2023/12/08 02:08:38;;;;;;;16.73;7.47;;;;;;;1.39;100.00;99949.66;4962442;28;20216;-76
2023/12/08 02:11:05;;;;;;;15.27;7.77;;;;;;;1.37;100.00;99951.31;4963188;28;20217;-76
2023/12/08 02:13:32;;;;;;;20.50;8.83;;;;;;;1.42;100.00;99956.72;4963619;28;20210;-76
2023/12/08 02:16:08;;;;;;;15.17;7.57;;;;;;;1.40;100.00;99953.16;4978399;28;20750;-76
2023/12/08 02:18:37;;;;;;;16.43;8.13;;;;;;;1.46;100.00;99946.47;4958104;28;20201;-76
2023/12/08 02:21:04;;;;;;;17.57;7.80;;;;;;;1.49;100.00;99941.38;4963650;28;20659;-76
2023/12/08 02:23:30;;;;;;;18.83;7.83;;;;;;;1.40;100.00;99929.69;4976700;28;20741;-76
2023/12/08 02:25:57;;;;;;;19.63;7.90;;;;;;;1.45;100.00;99935.97;4961229;28;20193;-76
2023/12/08 02:28:24;;;;;;;15.67;7.97;;;;;;;1.47;100.00;99945.66;4961710;28;20226;-76
2023/12/08 02:30:54;;;;;;;21.20;8.10;;;;;;;1.43;100.00;99954.19;4965217;28;20223;-76
2023/12/08 02:33:30;;;;;;;19.23;9.17;;;;;;;1.48;100.00;99947.44;4961340;28;20202;-76
2023/12/08 02:35:59;;;;;;;18.97;8.40;;;;;;;1.46;100.00;99930.81;4975440;28;20217;-76
2023/12/08 02:38:27;;;;;;;15.77;8.20;;;;;;;1.54;100.00;99946.78;4978501;28;20317;-77
2023/12/08 02:40:56;;;;;;;18.77;8.77;;;;;;;1.56;100.00;99932.09;4961345;28;20510;-76
2023/12/08 02:43:23;;;;;;;18.73;8.17;;;;;;;1.60;100.00;99920.94;4976913;28;20289;-76
2023/12/08 02:45:49;;;;;;;20.27;8.40;;;;;;;1.59;100.00;99921.78;4962727;28;20214;-76
2023/12/08 02:48:15;;;;;;;19.63;8.27;;;;;;;1.53;100.00;99911.09;4963348;28;20289;-76
2023/12/08 02:50:43;;;;;;;25.30;8.33;;;;;;;1.52;100.00;99912.81;4977800;28;20761;-76
2023/12/08 02:53:09;;;;;;;16.17;7.67;;;;;;;1.54;100.00;99912.88;4962910;28;20221;-77
2023/12/08 02:55:36;;;;;;;19.40;9.00;;;;;;;1.46;100.00;99903.84;4978057;28;20630;-76
2023/12/08 02:58:02;;;;;;;18.60;8.13;;;;;;;1.46;100.00;99898.63;4962097;28;20202;-76
2023/12/08 03:00:28;;;;;;;17.03;8.33;;;;;;;1.50;100.00;99892.69;4962287;28;20285;-76
2023/12/08 03:02:55;;;;;;;21.23;9.17;;;;;;;1.47;100.00;99901.28;4963117;28;20198;-76
2023/12/08 03:05:21;;;;;;;17.93;8.50;;;;;;;1.47;100.00;99903.91;4962406;28;20269;-76
2023/12/08 03:07:48;;;;;;;19.40;8.37;;;;;;;1.45;100.00;99908.16;4961665;28;20677;-76
2023/12/08 03:10:14;;;;;;;21.70;8.87;;;;;;;1.50;100.00;99919.69;4962337;28;20282;-76
2023/12/08 03:12:42;;;;;;;19.73;8.77;;;;;;;1.47;100.00;99923.88;4960513;28;20223;-76
2023/12/08 03:15:08;;;;;;;19.03;8.37;;;;;;;1.50;100.00;99905.75;4961349;28;20231;-77
2023/12/08 03:17:35;;;;;;;20.40;8.80;;;;;;;1.50;100.00;99906.63;4957287;28;20221;-79
2023/12/08 03:20:02;;;;;;;19.50;7.97;;;;;;;1.60;100.00;99917.44;4977733;28;20219;-76
2023/12/08 03:22:29;;;;;;;18.77;8.13;;;;;;;1.56;100.00;99900.78;4958499;28;20301;-76
2023/12/08 03:24:55;;;;;;;20.50;8.10;;;;;;;1.50;100.00;99893.59;4962512;28;20200;-76
2023/12/08 03:27:22;;;;;;;23.13;8.47;;;;;;;1.56;100.00;99892.94;4960641;28;20294;-76
2023/12/08 03:29:48;;;;;;;16.10;7.93;;;;;;;1.62;100.00;99884.50;4975094;28;20215;-76
2023/12/08 03:32:15;;;;;;;18.83;8.57;;;;;;;1.70;100.00;99878.75;4975659;28;20597;-76
2023/12/08 03:34:41;;;;;;;19.30;9.27;;;;;;;1.74;100.00;99875.44;4959999;28;20198;-76
2023/12/08 03:37:08;;;;;;;20.57;9.90;;;;;;;1.80;100.00;99870.47;4962539;28;20218;-76
2023/12/08 03:39:34;;;;;;;19.90;7.97;;;;;;;1.84;100.00;99858.41;4960420;28;20713;-76
2023/12/08 03:42:01;;;;;;;15.90;7.37;;;;;;;1.79;100.00;99867.78;4960163;28;20197;-76
2023/12/08 03:44:27;;;;;;;15.73;7.90;;;;;;;1.75;100.00;99865.91;4959724;28;20577;-76
2023/12/08 03:46:53;;;;;;;16.27;8.20;;;;;;;1.73;100.00;99852.78;4962059;28;20295;-76
2023/12/08 03:49:20;;;;;;;18.90;8.40;;;;;;;1.72;100.00;99844.91;4961622;28;20223;-76
2023/12/08 03:51:46;;;;;;;17.87;8.57;;;;;;;1.78;100.00;99848.63;4959071;28;20218;-76
2023/12/08 03:54:13;;;;;;;19.00;7.93;;;;;;;1.77;100.00;99851.19;4961576;28;20216;-76
2023/12/08 03:56:39;;;;;;;18.20;8.53;;;;;;;1.74;100.00;99866.72;4959899;28;20202;-76
2023/12/08 03:59:06;;;;;;;18.87;8.80;;;;;;;1.74;100.00;99853.66;4961678;28;20252;-76
2023/12/08 04:01:32;;;;;;;18.33;8.90;;;;;;;1.77;100.00;99862.50;4960147;28;20288;-76
2023/12/08 04:03:59;;;;;;;18.50;7.60;;;;;;;1.77;100.00;99861.63;4962544;28;20221;-76
2023/12/08 04:06:26;;;;;;;18.10;8.17;;;;;;;1.77;100.00;99856.41;4977804;28;20199;-76
2023/12/08 04:08:52;;;;;;;19.97;9.20;;;;;;;1.79;100.00;99853.03;4962509;28;20203;-76
2023/12/08 04:11:19;;;;;;;20.80;8.50;;;;;;;1.83;100.00;99844.47;4977004;28;20223;-76
2023/12/08 04:13:45;;;;;;;17.33;8.37;;;;;;;1.74;100.00;99840.63;4960077;28;20203;-76
2023/12/08 04:16:14;;;;;;;19.37;8.50;;;;;;;1.77;100.00;99844.25;4959981;28;20203;-76
2023/12/08 04:18:40;;;;;;;15.80;8.13;;;;;;;1.80;100.00;99836.53;4962330;28;20269;-76
2023/12/08 04:21:07;;;;;;;19.07;7.03;;;;;;;1.73;100.00;99841.44;4976276;28;20227;-76
2023/12/08 04:23:34;;;;;;;16.17;8.43;;;;;;;1.77;100.00;99836.41;4962461;28;20575;-76
2023/12/08 04:26:00;;;;;;;18.10;7.77;;;;;;;1.75;100.00;99835.47;4961969;28;20223;-76
2023/12/08 04:28:27;;;;;;;18.20;7.80;;;;;;;1.71;100.00;99832.66;4960670;28;20233;-76
2023/12/08 04:30:54;;;;;;;19.47;8.77;;;;;;;1.75;100.00;99838.06;4962161;28;20302;-76
2023/12/08 04:33:20;;;;;;;19.37;8.33;;;;;;;1.68;100.00;99829.94;4977264;28;20253;-76
2023/12/08 04:35:47;;;;;;;15.70;7.70;;;;;;;1.74;100.00;99841.50;4960683;28;20211;-76
2023/12/08 04:38:14;;;;;;;19.17;8.63;;;;;;;1.68;100.00;99825.63;4959966;28;20299;-76
2023/12/08 04:40:40;;;;;;;20.00;9.20;;;;;;;1.72;100.00;99834.44;4976419;28;20218;-76
2023/12/08 04:43:07;;;;;;;17.17;8.00;;;;;;;1.70;100.00;99831.78;4967197;28;20195;-76
2023/12/08 04:45:33;;;;;;;22.83;8.57;;;;;;;1.68;100.00;99833.44;4961164;28;20306;-76
2023/12/08 04:48:00;;;;;;;14.67;7.87;;;;;;;1.60;100.00;99831.34;4976713;28;20209;-76
2023/12/08 04:50:27;;;;;;;19.33;8.83;;;;;;;1.53;100.00;99825.88;4961824;28;20236;-76
2023/12/08 04:52:53;;;;;;;22.70;9.27;;;;;;;1.54;100.00;99837.19;4977228;28;20225;-76
2023/12/08 04:55:20;;;;;;;18.10;8.37;;;;;;;1.51;100.00;99827.53;4989052;23;20615;-69
2023/12/08 04:57:46;;;;;;;17.60;8.50;;;;;;;1.50;100.00;99838.81;4977792;28;20802;-67
2023/12/08 05:00:13;;;;;;;19.53;8.83;;;;;;;1.38;100.00;99837.41;4983042;28;20207;-69
2023/12/08 05:02:39;;;;;;;18.67;8.33;;;;;;;1.33;100.00;99839.84;4984039;28;20266;-69
2023/12/08 05:05:06;;;;;;;19.83;7.57;;;;;;;1.27;100.00;99830.88;4984234;28;20222;-69
2023/12/08 05:07:33;;;;;;;18.67;7.77;;;;;;;1.23;100.00;99849.03;4984694;28;20202;-69
2023/12/08 05:10:00;;;;;;;19.40;9.03;;;;;;;1.24;100.00;99834.25;4983582;28;20299;-70
2023/12/08 05:12:26;;;;;;;17.40;8.10;;;;;;;1.17;100.00;99827.88;4979526;28;20233;-69
2023/12/08 05:14:53;;;;;;;20.90;8.23;;;;;;;1.17;100.00;99827.88;4984179;28;20221;-68
2023/12/08 05:17:20;;;;;;;17.97;8.60;;;;;;;1.12;100.00;99821.56;4999243;28;20843;-69
2023/12/08 05:19:46;;;;;;;18.97;9.07;;;;;;;1.21;100.00;99824.59;4983415;28;20205;-69
2023/12/08 05:22:13;;;;;;;26.70;8.97;;;;;;;1.15;100.00;99820.81;4985054;28;20259;-69
2023/12/08 05:24:39;;;;;;;18.73;8.40;;;;;;;1.12;100.00;99821.56;4984220;28;20237;-66
2023/12/08 05:27:06;;;;;;;19.00;8.77;;;;;;;1.12;100.00;99829.41;4984453;28;20196;-69
2023/12/08 05:29:32;;;;;;;19.93;8.43;;;;;;;1.09;100.00;99839.72;4984085;28;20204;-70
2023/12/08 05:31:59;;;;;;;17.10;7.60;;;;;;;1.06;100.00;99830.88;4984895;28;20401;-69
2023/12/08 05:34:26;;;;;;;17.47;8.00;;;;;;;1.04;100.00;99824.69;4984231;28;20228;-69
2023/12/08 05:36:52;;;;;;;20.83;9.00;;;;;;;0.92;100.00;99839.00;4984166;28;20200;-70
2023/12/08 05:39:19;;;;;;;18.43;7.67;;;;;;;0.84;100.00;99839.50;4983915;28;20724;-69
2023/12/08 05:41:46;;;;;;;18.47;8.33;;;;;;;0.79;100.00;99849.72;4985886;28;20201;-66
2023/12/08 05:44:15;;;;;;;21.63;8.33;;;;;;;0.70;100.00;99853.63;4991911;28;20224;-67
2023/12/08 05:46:41;;;;;;;17.10;8.13;;;;;;;0.74;100.00;99860.75;4988593;28;20201;-70
2023/12/08 05:49:07;;;;;;;14.57;7.27;;;;;;;0.74;100.00;99860.75;4991307;28;20208;-69
2023/12/08 05:51:34;;;;;;;16.87;7.43;;;;;;;0.66;100.00;99864.75;4990570;28;20346;-69
2023/12/08 05:54:00;;;;;;;19.63;7.83;;;;;;;0.68;100.00;99868.31;5004915;28;20392;-69
2023/12/08 05:56:27;;;;;;;25.90;8.87;;;;;;;0.67;100.00;99879.56;4991886;28;20210;-69
2023/12/08 05:58:53;;;;;;;18.27;8.57;;;;;;;0.59;100.00;99868.81;4991358;28;20211;-69
2023/12/08 06:01:20;;;;;;;21.20;8.40;;;;;;;0.68;100.00;99876.13;4992972;28;20212;-69
2023/12/08 06:03:48;;;;;;;22.10;8.60;;;;;;;0.68;100.00;99873.53;5003350;28;20247;-69
2023/12/08 06:06:15;;;;;;;19.67;8.17;;;;;;;0.63;100.00;99881.16;4991403;28;20222;-67
2023/12/08 06:08:41;;;;;;;17.17;8.47;;;;;;;0.64;100.00;99890.75;4991329;28;20284;-69
2023/12/08 06:11:08;;;;;;;19.20;8.73;;;;;;;0.63;100.00;99883.75;4990827;28;20283;-69
2023/12/08 06:13:34;;;;;;;18.73;8.57;;;;;;;0.67;100.00;99901.31;4988538;28;20230;-68
2023/12/08 06:16:01;;;;;;;21.23;7.60;;;;;;;0.61;100.00;99886.28;4990936;28;20205;-69
2023/12/08 06:18:27;;;;;;;23.73;9.87;;;;;;;0.57;100.00;99873.94;4990379;28;20634;-70
2023/12/08 06:20:54;;;;;;;19.77;8.60;;;;;;;0.57;100.00;99878.28;4989989;28;20284;-69
2023/12/08 06:23:20;;;;;;;19.10;7.97;;;;;;;0.60;100.00;99884.50;4990851;28;20208;-69
2023/12/08 06:25:47;;;;;;;21.63;8.60;;;;;;;0.51;100.00;99888.44;4990992;28;20206;-69
2023/12/08 06:28:13;;;;;;;21.23;9.10;;;;;;;0.47;100.00;99897.81;4990534;28;20203;-69
2023/12/08 06:30:40;;;;;;;20.80;8.17;;;;;;;0.53;100.00;99897.19;5004597;28;20251;-70
2023/12/08 06:33:06;;;;;;;22.17;8.77;;;;;;;0.58;100.00;99901.78;4990439;28;20216;-69
2023/12/08 06:35:33;;;;;;;18.87;8.07;;;;;;;0.46;100.00;99897.75;5006111;28;20643;-69
2023/12/08 06:37:59;;;;;;;22.60;8.30;;;;;;;0.43;100.00;99897.63;4988598;28;20196;-70
2023/12/08 06:40:26;;;;;;;18.90;8.20;;;;;;;0.47;100.00;99900.44;4987578;28;20228;-71
2023/12/08 06:42:52;;;;;;;19.50;7.90;;;;;;;0.42;100.00;99896.72;4989375;28;20204;-69
2023/12/08 06:45:19;;;;;;;20.67;9.20;;;;;;;0.50;100.00;99908.38;4990229;28;20287;-68
2023/12/08 06:47:45;;;;;;;19.27;8.13;;;;;;;0.54;100.00;99886.84;4985352;28;20210;-68
2023/12/08 06:50:12;;;;;;;23.80;8.30;;;;;;;0.44;100.00;99883.75;4987979;28;20208;-68
2023/12/08 06:52:38;;;;;;;19.37;8.00;;;;;;;0.45;100.00;99890.75;4988072;28;20644;-68
2023/12/08 06:55:05;;;;;;;22.57;8.77;;;;;;;0.47;100.00;99890.00;4987820;28;20662;-68
2023/12/08 06:57:31;;;;;;;16.60;6.80;;;;;;;0.46;100.00;99897.75;4987036;28;20216;-67
2023/12/08 06:59:58;;;;;;;21.43;8.83;;;;;;;0.44;100.00;99886.38;5004583;28;20288;-67
2023/12/08 07:02:26;;;;;;;24.53;10.00;;;;;;;0.50;100.00;99903.16;4985712;28;20264;-69
2023/12/08 07:04:53;;;;;;;22.20;8.73;;;;;;;0.55;100.00;99909.47;4989860;28;20318;-70
2023/12/08 07:07:20;;;;;;;21.57;9.60;;;;;;;0.53;100.00;99903.28;5004696;28;20211;-69
2023/12/08 07:09:46;;;;;;;21.43;8.80;;;;;;;0.57;100.00;99894.78;4989112;28;20583;-68
2023/12/08 07:12:12;;;;;;;15.70;8.27;;;;;;;0.54;100.00;99884.25;4988118;28;20211;-68
2023/12/08 07:14:39;;;;;;;26.80;8.30;;;;;;;0.56;100.00;99892.13;4989890;28;20311;-67
2023/12/08 07:17:08;;;;;;;19.17;7.67;;;;;;;0.51;100.00;99894.53;5003633;28;20657;-67
2023/12/08 07:19:38;;;;;;;19.97;7.60;;;;;;;0.50;100.00;99886.66;4988241;28;20288;-69
2023/12/08 07:22:04;;;;;;;21.27;8.53;;;;;;;0.45;100.00;99870.81;4985495;28;20392;-69
2023/12/08 07:24:31;;;;;;;17.23;8.03;;;;;;;0.51;100.00;99884.09;4988674;28;20224;-68
2023/12/08 07:26:57;;;;;;;20.13;8.97;;;;;;;0.49;100.00;99882.25;4972161;28;20208;-68
2023/12/08 07:29:24;;;;;;;18.03;6.80;;;;;;;0.55;100.00;99912.06;4953607;28;21052;-68
2023/12/08 07:31:50;;;;;;;19.80;8.63;;;;;;;0.50;100.00;99904.88;4945113;28;21190;-68
2023/12/08 07:34:16;;;;;;;20.53;8.13;;;;;;;0.54;100.00;99894.66;4982726;28;20240;-68
2023/12/08 07:36:43;;;;;;;24.40;8.97;;;;;;;0.53;100.00;99892.00;4983140;28;20705;-69
2023/12/08 07:39:10;;;;;;;17.40;7.17;;;;;;;0.57;100.00;99888.69;4982390;28;20263;-67
2023/12/08 07:41:37;;;;;;;28.23;10.87;;;;;;;0.60;100.00;99889.72;4981346;28;20222;-66
2023/12/08 07:44:03;;;;;;;21.03;9.37;;;;;;;0.63;100.00;99886.34;4981922;28;20315;-69
2023/12/08 07:46:30;;;;;;;22.13;9.13;;;;;;;0.63;100.00;99892.47;4982743;28;20218;-68
2023/12/08 07:48:57;;;;;;;23.80;8.83;;;;;;;0.59;100.00;99889.66;4983264;28;20200;-68
2023/12/08 07:51:24;;;;;;;23.93;9.97;;;;;;;0.71;100.00;99902.31;4984017;28;20201;-68
2023/12/08 07:53:51;;;;;;;26.63;10.80;;;;;;;0.71;100.00;99908.44;4998041;28;20320;-68
2023/12/08 07:56:17;;;;;;;29.17;11.47;;;;;;;0.70;100.00;99905.75;4982533;28;20622;-69
2023/12/08 07:58:44;;;;;;;26.40;10.07;;;;;;;0.78;100.00;99923.50;4987465;28;20296;-69
2023/12/08 08:01:10;;;;;;;28.37;10.23;;;;;;;0.79;100.00;99908.75;4989094;28;20711;-69
2023/12/08 08:03:37;;;;;;;25.73;11.20;;;;;;;0.90;100.00;99928.41;4988229;28;20605;-68
2023/12/08 08:06:03;;;;;;;21.33;8.47;;;;;;;0.79;100.00;99917.47;4989637;28;20270;-68
2023/12/08 08:08:30;;;;;;;24.90;10.50;;;;;;;0.86;100.00;99929.97;4989730;28;20201;-68
2023/12/08 08:10:56;;;;;;;24.73;9.50;;;;;;;0.89;100.00;99916.19;4988485;28;20211;-69
2023/12/08 08:13:23;;;;;;;21.77;9.97;;;;;;;0.97;100.00;99911.31;4988515;28;20604;-69
2023/12/08 08:15:49;;;;;;;27.47;10.93;;;;;;;1.04;100.00;99900.31;4989787;28;20202;-67
2023/12/08 08:18:16;;;;;;;25.27;9.57;;;;;;;1.08;100.00;99897.00;4989984;28;20361;-70
2023/12/08 08:20:42;;;;;;;22.90;9.30;;;;;;;1.06;100.00;99902.16;4988531;28;20804;-68
2023/12/08 08:23:09;;;;;;;25.87;9.37;;;;;;;1.10;100.00;99900.56;4989573;28;20212;-69
2023/12/08 08:25:35;;;;;;;27.00;9.47;;;;;;;1.08;100.00;99890.06;5004554;28;20230;-69
2023/12/08 08:28:01;;;;;;;27.10;8.43;;;;;;;1.08;100.00;99883.97;4989462;28;20196;-69
2023/12/08 08:30:28;;;;;;;26.07;9.80;;;;;;;1.03;100.00;99875.06;4990260;28;20558;-70
2023/12/08 08:32:54;;;;;;;25.77;8.13;;;;;;;1.03;100.00;99880.28;4992952;28;20224;-70
2023/12/08 08:35:21;;;;;;;29.40;9.20;;;;;;;0.92;100.00;99867.69;4993846;28;20225;-69
2023/12/08 08:37:47;;;;;;;23.17;9.20;;;;;;;1.04;100.00;99879.44;4993232;28;20212;-69
2023/12/08 08:40:15;;;;;;;25.10;9.17;;;;;;;1.06;100.00;99894.34;4985579;28;20236;-69
2023/12/08 08:42:41;;;;;;;25.03;9.73;;;;;;;1.06;100.00;99902.16;4993355;28;20216;-69
2023/12/08 08:45:08;;;;;;;21.07;9.43;;;;;;;1.10;100.00;99909.28;4993002;28;20231;-69
2023/12/08 08:47:34;;;;;;;28.50;9.00;;;;;;;1.10;100.00;99914.50;4992516;28;20206;-70
2023/12/08 08:50:01;;;;;;;23.37;8.53;;;;;;;1.08;100.00;99915.25;4992841;28;20208;-70
2023/12/08 08:52:28;;;;;;;21.97;9.47;;;;;;;1.08;100.00;99912.66;4993606;28;20558;-70
2023/12/08 08:54:54;;;;;;;26.77;9.30;;;;;;;1.07;100.00;99918.69;4993357;28;20228;-71
2023/12/08 08:57:21;;;;;;;26.57;8.93;;;;;;;1.06;100.00;99928.22;4992226;28;20679;-70
2023/12/08 08:59:47;;;;;;;21.60;9.00;;;;;;;1.10;100.00;99931.84;4993010;28;20204;-69
2023/12/08 09:02:14;;;;;;;23.73;9.73;;;;;;;1.07;100.00;99918.69;4993289;28;20201;-69
2023/12/08 09:04:41;;;;;;;22.57;9.90;;;;;;;1.06;100.00;99927.34;4991894;28;20220;-70
2023/12/08 09:07:07;;;;;;;24.10;9.50;;;;;;;0.98;100.00;99931.34;4992659;28;20220;-70
2023/12/08 09:09:34;;;;;;;24.87;10.60;;;;;;;0.99;100.00;99943.53;4992559;28;20211;-69
2023/12/08 09:12:01;;;;;;;22.13;10.03;;;;;;;1.01;100.00;99934.06;4991324;28;20216;-69
2023/12/08 09:14:27;;;;;;;25.87;9.53;;;;;;;1.07;100.00;99931.72;4991308;28;20308;-69
2023/12/08 09:16:54;;;;;;;19.67;8.67;;;;;;;1.08;100.00;99928.28;4990802;28;20696;-69
2023/12/08 09:19:20;;;;;;;27.63;11.07;;;;;;;1.15;100.00;99909.47;4992470;28;20261;-69
2023/12/08 09:21:47;;;;;;;24.67;10.07;;;;;;;1.22;100.00;99921.97;4991643;28;20284;-69
2023/12/08 09:24:20;;;;;;;20.60;9.23;;;;;;;1.18;100.00;99918.31;4985433;28;20221;-69
2023/12/08 09:26:47;;;;;;;19.73;9.27;;;;;;;1.16;100.00;99917.38;4992672;28;20626;-69
2023/12/08 09:29:13;;;;;;;21.73;9.73;;;;;;;1.21;100.00;99915.88;4992719;28;20240;-71
2023/12/08 09:31:40;;;;;;;27.63;9.97;;;;;;;1.29;100.00;99925.72;4991556;28;20263;-69
2023/12/08 09:34:06;;;;;;;26.13;11.63;;;;;;;1.29;100.00;99920.50;4991858;28;20233;-69
2023/12/08 09:36:33;;;;;;;22.10;10.53;;;;;;;1.41;100.00;99927.13;4992360;28;20736;-69
2023/12/08 09:39:00;;;;;;;27.10;10.37;;;;;;;1.36;100.00;99923.44;4991960;28;20739;-68
2023/12/08 09:41:27;;;;;;;28.67;11.03;;;;;;;1.40;100.00;99929.69;4974008;28;20666;-70
2023/12/08 09:44:02;;;;;;;25.37;10.37;;;;;;;1.41;100.00;99934.97;4984436;28;20219;-70
2023/12/08 09:46:30;;;;;;;30.33;10.97;;;;;;;1.41;100.00;99921.03;4983991;28;20205;-69
2023/12/08 09:49:00;;;;;;;34.53;16.60;;;;;;;1.46;100.00;99933.44;4984213;28;20444;-72
2023/12/08 09:51:28;;;;;;;33.33;13.87;;;;;;;1.53;100.00;99931.97;4978172;28;20206;-69
2023/12/08 09:53:55;;;;;;;29.53;11.87;;;;;;;1.64;100.00;99925.50;4982999;28;20222;-70
2023/12/08 09:56:23;;;;;;;27.03;10.80;;;;;;;1.67;100.00;99912.56;4999293;28;20220;-68
2023/12/08 09:58:50;;;;;;;25.07;10.10;;;;;;;1.72;100.00;99925.81;4986025;28;20959;-70
2023/12/08 10:01:17;;;;;;;26.03;11.23;;;;;;;1.81;100.00;99924.44;4982305;28;20775;-69
2023/12/08 10:03:44;;;;;;;27.97;11.67;;;;;;;1.62;100.00;99897.56;4983197;28;20729;-72
2023/12/08 10:06:12;;;;;;;24.90;10.87;;;;;;;1.75;100.00;99908.53;4983573;28;20700;-70
2023/12/08 10:08:39;;;;;;;25.47;11.13;;;;;;;1.68;100.00;99903.91;4982713;28;20206;-71
2023/12/08 10:11:06;;;;;;;24.70;10.87;;;;;;;1.72;100.00;99913.66;4982100;28;20774;-71
2023/12/08 10:13:32;;;;;;;27.20;10.53;;;;;;;1.77;100.00;99926.88;4982929;28;20222;-72
2023/12/08 10:15:59;;;;;;;28.77;11.30;;;;;;;1.71;100.00;99911.88;4982629;28;20208;-72
2023/12/08 10:18:27;;;;;;;25.27;10.67;;;;;;;1.79;100.00;99923.50;4983693;28;20254;-71
2023/12/08 10:21:13;;;;;;;25.10;9.77;;;;;;;1.87;100.00;99910.75;4985576;28;20211;-71
2023/12/08 10:23:42;;;;;;;27.47;11.10;;;;;;;1.92;100.00;99918.75;4980988;28;20703;-71
2023/12/08 10:26:09;;;;;;;21.83;11.50;;;;;;;1.84;100.00;99906.28;4986335;28;20209;-71
2023/12/08 10:28:35;;;;;;;23.97;10.67;;;;;;;2.00;100.00;99906.91;4985314;28;20204;-71
2023/12/08 10:31:05;;;;;;;28.17;11.03;;;;;;;2.00;100.00;99909.50;4984535;28;20210;-72
2023/12/08 10:33:32;;;;;;;22.53;10.30;;;;;;;2.06;100.00;99913.28;4982804;28;20227;-72
2023/12/08 10:35:59;;;;;;;24.43;10.30;;;;;;;2.08;100.00;99914.22;4983270;28;20689;-72
2023/12/08 10:38:26;;;;;;;24.33;11.77;;;;;;;2.03;100.00;99909.66;4984322;28;20215;-72
2023/12/08 10:40:53;;;;;;;27.27;11.07;;;;;;;2.05;100.00;99918.44;4987904;28;20219;-71
2023/12/08 10:43:25;;;;;;;23.70;11.10;;;;;;;2.09;100.00;99902.06;4987583;28;20714;-72
2023/12/08 10:45:54;;;;;;;25.07;10.73;;;;;;;2.11;100.00;99900.41;4985647;28;20211;-73
2023/12/08 10:48:23;;;;;;;22.20;10.40;;;;;;;2.16;100.00;99909.28;4987647;28;20214;-72
2023/12/08 10:50:50;;;;;;;22.10;10.57;;;;;;;2.33;100.00;99915.16;4986285;28;21006;-71
2023/12/08 10:53:19;;;;;;;23.53;11.07;;;;;;;2.30;100.00;99915.03;4983517;28;20696;-72
2023/12/08 10:56:05;;;;;;;25.00;10.57;;;;;;;2.34;100.00;99920.44;4998130;23;20330;-71
2023/12/08 10:58:35;;;;;;;25.13;10.70;;;;;;;2.34;100.00;99915.22;4984007;28;20212;-71
2023/12/08 11:01:07;;;;;;;25.17;10.97;;;;;;;2.28;100.00;99914.09;4986584;28;20207;-71
2023/12/08 11:03:35;;;;;;;22.53;11.13;;;;;;;2.29;100.00;99910.66;4981581;28;20671;-71
2023/12/08 11:06:09;;;;;;;26.77;10.77;;;;;;;2.29;100.00;99921.09;5015849;28;20744;-71
2023/12/08 11:08:40;;;;;;;26.37;10.77;;;;;;;2.31;100.00;99917.72;5001398;28;20570;-70
2023/12/08 11:11:08;;;;;;;26.00;10.63;;;;;;;2.34;100.00;99930.00;5004855;28;20226;-69
2023/12/08 11:13:39;;;;;;;21.13;10.33;;;;;;;2.26;100.00;99931.44;5025752;28;20279;-71
2023/12/08 11:16:33;;;;;;;25.90;10.13;;;;;;;2.11;100.00;99930.00;5015197;28;20237;-71
2023/12/08 11:19:00;;;;;;;24.67;10.33;;;;;;;2.00;100.00;99930.41;5003901;28;20214;-73
2023/12/08 11:21:27;;;;;;;24.80;11.73;;;;;;;1.98;100.00;99930.34;5018227;28;20223;-72
2023/12/08 11:23:55;;;;;;;25.17;10.70;;;;;;;2.03;100.00;99935.78;4999896;28;20226;-73